sensor_id;sensor_type;location;lat;lon;timestamp;P1;durP1;ratioP1;P2;durP2;ratioP2
13941;SDS011;7043;51.630;7.254;2024-02-14T00:01:05;7.10;;;4.00;;
13941;SDS011;7043;51.630;7.254;2024-02-14T00:03:33;7.47;;;4.03;;
13941;SDS011;7043;51.630;7.254;2024-02-14T00:05:59;6.30;;;4.07;;
13941;SDS011;7043;51.630;7.254;2024-02-14T00:08:25;5.70;;;3.97;;
13941;SDS011;7043;51.630;7.254;2024-02-14T00:10:51;5.30;;;3.87;;
13941;SDS011;7043;51.630;7.254;2024-02-14T00:13:17;6.00;;;3.93;;
13941;SDS011;7043;51.630;7.254;2024-02-14T00:15:43;6.43;;;3.90;;
13941;SDS011;7043;51.630;7.254;2024-02-14T00:18:10;5.00;;;4.07;;
13941;SDS011;7043;51.630;7.254;2024-02-14T00:20:36;6.33;;;4.53;;
13941;SDS011;7043;51.630;7.254;2024-02-14T00:23:04;6.67;;;4.17;;
13941;SDS011;7043;51.630;7.254;2024-02-14T00:25:30;6.63;;;4.60;;
13941;SDS011;7043;51.630;7.254;2024-02-14T00:27:56;7.90;;;4.67;;
13941;SDS011;7043;51.630;7.254;2024-02-14T00:30:23;7.30;;;4.67;;
13941;SDS011;7043;51.630;7.254;2024-02-14T00:32:50;6.33;;;4.30;;
13941;SDS011;7043;51.630;7.254;2024-02-14T00:35:16;6.10;;;3.90;;
13941;SDS011;7043;51.630;7.254;2024-02-14T00:37:42;5.93;;;3.77;;
13941;SDS011;7043;51.630;7.254;2024-02-14T00:40:08;6.23;;;3.57;;
13941;SDS011;7043;51.630;7.254;2024-02-14T00:42:34;4.70;;;3.43;;
13941;SDS011;7043;51.630;7.254;2024-02-14T00:45:00;6.53;;;3.50;;
13941;SDS011;7043;51.630;7.254;2024-02-14T00:47:26;4.73;;;3.37;;
13941;SDS011;7043;51.630;7.254;2024-02-14T00:49:52;5.40;;;3.37;;
13941;SDS011;7043;51.630;7.254;2024-02-14T00:52:18;4.03;;;3.07;;
13941;SDS011;7043;51.630;7.254;2024-02-14T00:54:48;4.27;;;3.00;;
13941;SDS011;7043;51.630;7.254;2024-02-14T00:57:14;5.67;;;3.33;;
13941;SDS011;7043;51.630;7.254;2024-02-14T00:59:41;5.53;;;2.90;;
13941;SDS011;7043;51.630;7.254;2024-02-14T01:02:07;5.73;;;3.23;;
13941;SDS011;7043;51.630;7.254;2024-02-14T01:04:33;4.23;;;2.97;;
13941;SDS011;7043;51.630;7.254;2024-02-14T01:07:01;6.53;;;3.33;;
13941;SDS011;7043;51.630;7.254;2024-02-14T01:09:27;5.43;;;3.20;;
13941;SDS011;7043;51.630;7.254;2024-02-14T01:11:53;5.57;;;3.30;;
13941;SDS011;7043;51.630;7.254;2024-02-14T01:14:19;8.03;;;3.00;;
13941;SDS011;7043;51.630;7.254;2024-02-14T01:16:46;5.30;;;3.20;;
13941;SDS011;7043;51.630;7.254;2024-02-14T01:19:13;6.60;;;3.30;;
13941;SDS011;7043;51.630;7.254;2024-02-14T01:21:39;5.10;;;3.13;;
13941;SDS011;7043;51.630;7.254;2024-02-14T01:24:05;6.20;;;3.40;;
13941;SDS011;7043;51.630;7.254;2024-02-14T01:26:33;6.30;;;3.27;;
13941;SDS011;7043;51.630;7.254;2024-02-14T01:28:59;4.20;;;2.77;;
13941;SDS011;7043;51.630;7.254;2024-02-14T01:31:26;6.23;;;3.53;;
13941;SDS011;7043;51.630;7.254;2024-02-14T01:33:52;5.10;;;3.10;;
13941;SDS011;7043;51.630;7.254;2024-02-14T01:36:18;4.53;;;3.60;;
13941;SDS011;7043;51.630;7.254;2024-02-14T01:38:44;5.10;;;3.50;;
13941;SDS011;7043;51.630;7.254;2024-02-14T01:41:10;4.40;;;3.43;;
13941;SDS011;7043;51.630;7.254;2024-02-14T01:43:36;5.63;;;3.67;;
13941;SDS011;7043;51.630;7.254;2024-02-14T01:46:06;6.63;;;3.53;;
13941;SDS011;7043;51.630;7.254;2024-02-14T01:48:33;5.07;;;3.20;;
13941;SDS011;7043;51.630;7.254;2024-02-14T01:50:59;4.60;;;3.23;;
13941;SDS011;7043;51.630;7.254;2024-02-14T01:53:26;3.03;;;2.73;;
13941;SDS011;7043;51.630;7.254;2024-02-14T01:55:55;6.67;;;3.53;;
13941;SDS011;7043;51.630;7.254;2024-02-14T01:58:21;4.10;;;3.20;;
13941;SDS011;7043;51.630;7.254;2024-02-14T02:00:48;4.80;;;2.90;;
13941;SDS011;7043;51.630;7.254;2024-02-14T02:03:14;4.37;;;3.10;;
13941;SDS011;7043;51.630;7.254;2024-02-14T02:05:41;4.70;;;3.07;;
13941;SDS011;7043;51.630;7.254;2024-02-14T02:08:10;4.07;;;2.83;;
13941;SDS011;7043;51.630;7.254;2024-02-14T02:10:36;4.73;;;2.80;;
13941;SDS011;7043;51.630;7.254;2024-02-14T02:13:02;3.83;;;2.87;;
13941;SDS011;7043;51.630;7.254;2024-02-14T02:15:28;3.57;;;2.60;;
13941;SDS011;7043;51.630;7.254;2024-02-14T02:17:55;5.33;;;2.87;;
13941;SDS011;7043;51.630;7.254;2024-02-14T02:20:22;4.40;;;2.70;;
13941;SDS011;7043;51.630;7.254;2024-02-14T02:22:48;4.73;;;2.60;;
13941;SDS011;7043;51.630;7.254;2024-02-14T02:25:14;4.57;;;2.70;;
13941;SDS011;7043;51.630;7.254;2024-02-14T02:27:40;5.70;;;3.07;;
13941;SDS011;7043;51.630;7.254;2024-02-14T02:30:06;4.50;;;2.60;;
13941;SDS011;7043;51.630;7.254;2024-02-14T02:32:33;4.30;;;2.80;;
13941;SDS011;7043;51.630;7.254;2024-02-14T02:34:59;4.63;;;2.90;;
13941;SDS011;7043;51.630;7.254;2024-02-14T02:37:26;4.27;;;2.80;;
13941;SDS011;7043;51.630;7.254;2024-02-14T02:39:54;5.87;;;3.10;;
13941;SDS011;7043;51.630;7.254;2024-02-14T02:42:21;3.80;;;2.80;;
13941;SDS011;7043;51.630;7.254;2024-02-14T02:44:47;4.27;;;2.80;;
13941;SDS011;7043;51.630;7.254;2024-02-14T02:47:13;3.17;;;2.87;;
13941;SDS011;7043;51.630;7.254;2024-02-14T02:49:41;3.30;;;2.43;;
13941;SDS011;7043;51.630;7.254;2024-02-14T02:52:09;3.93;;;2.60;;
13941;SDS011;7043;51.630;7.254;2024-02-14T02:54:35;4.17;;;2.70;;
13941;SDS011;7043;51.630;7.254;2024-02-14T02:57:01;4.03;;;2.67;;
13941;SDS011;7043;51.630;7.254;2024-02-14T02:59:28;4.47;;;2.60;;
13941;SDS011;7043;51.630;7.254;2024-02-14T03:01:54;3.87;;;2.43;;
13941;SDS011;7043;51.630;7.254;2024-02-14T03:04:22;4.27;;;2.60;;
13941;SDS011;7043;51.630;7.254;2024-02-14T03:06:49;3.07;;;2.17;;
13941;SDS011;7043;51.630;7.254;2024-02-14T03:09:15;3.73;;;2.30;;
13941;SDS011;7043;51.630;7.254;2024-02-14T03:11:45;3.20;;;1.97;;
13941;SDS011;7043;51.630;7.254;2024-02-14T03:14:12;3.30;;;2.27;;
13941;SDS011;7043;51.630;7.254;2024-02-14T03:16:38;3.63;;;2.00;;
13941;SDS011;7043;51.630;7.254;2024-02-14T03:19:04;2.17;;;1.80;;
13941;SDS011;7043;51.630;7.254;2024-02-14T03:21:30;3.27;;;2.10;;
13941;SDS011;7043;51.630;7.254;2024-02-14T03:24:01;2.97;;;2.67;;
13941;SDS011;7043;51.630;7.254;2024-02-14T03:26:29;4.33;;;2.43;;
13941;SDS011;7043;51.630;7.254;2024-02-14T03:28:58;3.17;;;2.17;;
13941;SDS011;7043;51.630;7.254;2024-02-14T03:31:24;4.47;;;2.63;;
13941;SDS011;7043;51.630;7.254;2024-02-14T03:33:51;2.57;;;2.03;;
13941;SDS011;7043;51.630;7.254;2024-02-14T03:36:18;3.87;;;2.10;;
13941;SDS011;7043;51.630;7.254;2024-02-14T03:38:44;3.77;;;2.00;;
13941;SDS011;7043;51.630;7.254;2024-02-14T03:41:11;3.13;;;1.93;;
13941;SDS011;7043;51.630;7.254;2024-02-14T03:43:38;3.40;;;1.93;;
13941;SDS011;7043;51.630;7.254;2024-02-14T03:46:04;2.37;;;2.10;;
13941;SDS011;7043;51.630;7.254;2024-02-14T03:48:30;2.53;;;2.17;;
13941;SDS011;7043;51.630;7.254;2024-02-14T03:50:57;3.13;;;2.30;;
13941;SDS011;7043;51.630;7.254;2024-02-14T03:53:23;4.50;;;2.60;;
13941;SDS011;7043;51.630;7.254;2024-02-14T03:55:49;4.27;;;2.80;;
13941;SDS011;7043;51.630;7.254;2024-02-14T03:58:15;6.67;;;2.80;;
13941;SDS011;7043;51.630;7.254;2024-02-14T04:00:47;3.60;;;2.70;;
13941;SDS011;7043;51.630;7.254;2024-02-14T04:03:13;3.87;;;2.93;;
13941;SDS011;7043;51.630;7.254;2024-02-14T04:05:39;3.77;;;3.20;;
13941;SDS011;7043;51.630;7.254;2024-02-14T04:08:05;3.43;;;2.80;;
13941;SDS011;7043;51.630;7.254;2024-02-14T04:10:35;5.20;;;3.40;;
13941;SDS011;7043;51.630;7.254;2024-02-14T04:13:03;3.60;;;2.80;;
13941;SDS011;7043;51.630;7.254;2024-02-14T04:15:29;3.60;;;3.23;;
13941;SDS011;7043;51.630;7.254;2024-02-14T04:17:55;5.03;;;3.60;;
13941;SDS011;7043;51.630;7.254;2024-02-14T04:20:21;4.90;;;3.50;;
13941;SDS011;7043;51.630;7.254;2024-02-14T04:22:47;4.47;;;3.50;;
13941;SDS011;7043;51.630;7.254;2024-02-14T04:25:13;4.33;;;3.23;;
13941;SDS011;7043;51.630;7.254;2024-02-14T04:27:40;5.77;;;3.93;;
13941;SDS011;7043;51.630;7.254;2024-02-14T04:30:06;5.10;;;3.60;;
13941;SDS011;7043;51.630;7.254;2024-02-14T04:32:32;3.93;;;3.53;;
13941;SDS011;7043;51.630;7.254;2024-02-14T04:34:58;6.07;;;4.13;;
13941;SDS011;7043;51.630;7.254;2024-02-14T04:37:24;5.33;;;3.90;;
13941;SDS011;7043;51.630;7.254;2024-02-14T04:39:50;3.67;;;3.37;;
13941;SDS011;7043;51.630;7.254;2024-02-14T04:42:16;5.20;;;3.50;;
13941;SDS011;7043;51.630;7.254;2024-02-14T04:44:42;5.30;;;4.07;;
13941;SDS011;7043;51.630;7.254;2024-02-14T04:47:08;3.70;;;3.40;;
13941;SDS011;7043;51.630;7.254;2024-02-14T04:49:35;4.63;;;3.70;;
13941;SDS011;7043;51.630;7.254;2024-02-14T04:52:01;3.50;;;3.20;;
13941;SDS011;7043;51.630;7.254;2024-02-14T04:54:27;3.67;;;3.30;;
13941;SDS011;7043;51.630;7.254;2024-02-14T04:56:54;4.50;;;3.70;;
13941;SDS011;7043;51.630;7.254;2024-02-14T04:59:20;4.07;;;3.63;;
13941;SDS011;7043;51.630;7.254;2024-02-14T05:01:46;6.40;;;3.80;;
13941;SDS011;7043;51.630;7.254;2024-02-14T05:04:12;4.30;;;3.37;;
13941;SDS011;7043;51.630;7.254;2024-02-14T05:06:38;3.67;;;3.33;;
13941;SDS011;7043;51.630;7.254;2024-02-14T05:09:04;3.77;;;3.37;;
13941;SDS011;7043;51.630;7.254;2024-02-14T05:11:30;5.40;;;3.90;;
13941;SDS011;7043;51.630;7.254;2024-02-14T05:13:56;5.23;;;3.43;;
13941;SDS011;7043;51.630;7.254;2024-02-14T05:16:23;3.80;;;3.37;;
13941;SDS011;7043;51.630;7.254;2024-02-14T05:18:49;5.10;;;4.60;;
13941;SDS011;7043;51.630;7.254;2024-02-14T05:21:15;5.20;;;4.60;;
13941;SDS011;7043;51.630;7.254;2024-02-14T05:23:41;7.53;;;4.90;;
13941;SDS011;7043;51.630;7.254;2024-02-14T05:26:07;7.07;;;4.83;;
13941;SDS011;7043;51.630;7.254;2024-02-14T05:28:33;5.40;;;4.90;;
13941;SDS011;7043;51.630;7.254;2024-02-14T05:30:59;5.83;;;5.33;;
13941;SDS011;7043;51.630;7.254;2024-02-14T05:33:26;6.53;;;4.90;;
13941;SDS011;7043;51.630;7.254;2024-02-14T05:35:52;6.60;;;5.57;;
13941;SDS011;7043;51.630;7.254;2024-02-14T05:38:18;7.97;;;6.10;;
13941;SDS011;7043;51.630;7.254;2024-02-14T05:40:44;7.33;;;6.50;;
13941;SDS011;7043;51.630;7.254;2024-02-14T05:43:11;5.67;;;5.17;;
13941;SDS011;7043;51.630;7.254;2024-02-14T05:45:37;5.97;;;5.40;;
13941;SDS011;7043;51.630;7.254;2024-02-14T05:48:03;8.70;;;6.73;;
13941;SDS011;7043;51.630;7.254;2024-02-14T05:50:29;8.00;;;6.70;;
13941;SDS011;7043;51.630;7.254;2024-02-14T05:52:55;7.50;;;6.63;;
13941;SDS011;7043;51.630;7.254;2024-02-14T05:55:24;7.90;;;6.90;;
13941;SDS011;7043;51.630;7.254;2024-02-14T05:57:51;7.73;;;5.83;;
13941;SDS011;7043;51.630;7.254;2024-02-14T06:00:20;7.33;;;6.60;;
13941;SDS011;7043;51.630;7.254;2024-02-14T06:02:49;7.80;;;6.77;;
13941;SDS011;7043;51.630;7.254;2024-02-14T06:05:16;8.00;;;6.63;;
13941;SDS011;7043;51.630;7.254;2024-02-14T06:07:42;7.50;;;6.80;;
13941;SDS011;7043;51.630;7.254;2024-02-14T06:10:12;7.80;;;6.97;;
13941;SDS011;7043;51.630;7.254;2024-02-14T06:12:38;8.30;;;7.50;;
13941;SDS011;7043;51.630;7.254;2024-02-14T06:15:06;9.60;;;7.67;;
13941;SDS011;7043;51.630;7.254;2024-02-14T06:17:32;8.27;;;7.57;;
13941;SDS011;7043;51.630;7.254;2024-02-14T06:19:58;9.47;;;6.40;;
13941;SDS011;7043;51.630;7.254;2024-02-14T06:22:30;8.30;;;7.50;;
13941;SDS011;7043;51.630;7.254;2024-02-14T06:24:56;8.87;;;7.50;;
13941;SDS011;7043;51.630;7.254;2024-02-14T06:27:22;8.83;;;7.93;;
13941;SDS011;7043;51.630;7.254;2024-02-14T06:29:49;9.43;;;8.53;;
13941;SDS011;7043;51.630;7.254;2024-02-14T06:32:15;8.67;;;7.77;;
13941;SDS011;7043;51.630;7.254;2024-02-14T06:34:41;9.00;;;8.07;;
13941;SDS011;7043;51.630;7.254;2024-02-14T06:37:07;10.17;;;9.00;;
13941;SDS011;7043;51.630;7.254;2024-02-14T06:39:33;10.43;;;9.50;;
13941;SDS011;7043;51.630;7.254;2024-02-14T06:41:58;12.40;;;10.47;;
13941;SDS011;7043;51.630;7.254;2024-02-14T06:44:25;9.23;;;8.20;;
13941;SDS011;7043;51.630;7.254;2024-02-14T06:46:51;11.83;;;10.73;;
13941;SDS011;7043;51.630;7.254;2024-02-14T06:49:17;12.27;;;11.03;;
13941;SDS011;7043;51.630;7.254;2024-02-14T06:51:43;12.17;;;10.57;;
13941;SDS011;7043;51.630;7.254;2024-02-14T06:54:10;13.00;;;10.40;;
13941;SDS011;7043;51.630;7.254;2024-02-14T06:56:37;12.97;;;11.83;;
13941;SDS011;7043;51.630;7.254;2024-02-14T06:59:03;12.27;;;11.07;;
13941;SDS011;7043;51.630;7.254;2024-02-14T07:01:30;13.03;;;11.73;;
13941;SDS011;7043;51.630;7.254;2024-02-14T07:03:56;12.93;;;11.67;;
13941;SDS011;7043;51.630;7.254;2024-02-14T07:06:22;13.23;;;11.90;;
13941;SDS011;7043;51.630;7.254;2024-02-14T07:08:48;13.10;;;11.63;;
13941;SDS011;7043;51.630;7.254;2024-02-14T07:11:14;14.40;;;12.90;;
13941;SDS011;7043;51.630;7.254;2024-02-14T07:13:40;14.37;;;12.87;;
13941;SDS011;7043;51.630;7.254;2024-02-14T07:16:07;15.33;;;13.70;;
13941;SDS011;7043;51.630;7.254;2024-02-14T07:18:35;15.97;;;14.27;;
13941;SDS011;7043;51.630;7.254;2024-02-14T07:21:01;13.77;;;12.07;;
13941;SDS011;7043;51.630;7.254;2024-02-14T07:23:31;15.23;;;13.73;;
13941;SDS011;7043;51.630;7.254;2024-02-14T07:26:00;14.47;;;13.03;;
13941;SDS011;7043;51.630;7.254;2024-02-14T07:28:26;14.77;;;13.27;;
13941;SDS011;7043;51.630;7.254;2024-02-14T07:30:52;15.07;;;13.67;;
13941;SDS011;7043;51.630;7.254;2024-02-14T07:33:18;14.63;;;13.03;;
13941;SDS011;7043;51.630;7.254;2024-02-14T07:35:44;15.73;;;14.23;;
13941;SDS011;7043;51.630;7.254;2024-02-14T07:38:12;16.07;;;14.37;;
13941;SDS011;7043;51.630;7.254;2024-02-14T07:40:38;16.33;;;14.53;;
13941;SDS011;7043;51.630;7.254;2024-02-14T07:43:04;16.67;;;15.07;;
13941;SDS011;7043;51.630;7.254;2024-02-14T07:45:32;15.43;;;13.83;;
13941;SDS011;7043;51.630;7.254;2024-02-14T07:47:58;16.57;;;14.87;;
13941;SDS011;7043;51.630;7.254;2024-02-14T07:50:24;14.23;;;12.83;;
13941;SDS011;7043;51.630;7.254;2024-02-14T07:52:52;14.83;;;13.33;;
13941;SDS011;7043;51.630;7.254;2024-02-14T07:55:18;14.70;;;13.13;;
13941;SDS011;7043;51.630;7.254;2024-02-14T07:57:44;15.23;;;13.63;;
13941;SDS011;7043;51.630;7.254;2024-02-14T08:00:11;16.47;;;14.87;;
13941;SDS011;7043;51.630;7.254;2024-02-14T08:02:37;16.13;;;14.43;;
13941;SDS011;7043;51.630;7.254;2024-02-14T08:05:03;16.53;;;13.47;;
13941;SDS011;7043;51.630;7.254;2024-02-14T08:07:33;14.70;;;13.03;;
13941;SDS011;7043;51.630;7.254;2024-02-14T08:10:00;15.10;;;13.60;;
13941;SDS011;7043;51.630;7.254;2024-02-14T08:12:26;14.77;;;12.70;;
13941;SDS011;7043;51.630;7.254;2024-02-14T08:14:52;15.77;;;14.00;;
13941;SDS011;7043;51.630;7.254;2024-02-14T08:17:18;15.57;;;12.73;;
13941;SDS011;7043;51.630;7.254;2024-02-14T08:19:44;16.47;;;14.17;;
13941;SDS011;7043;51.630;7.254;2024-02-14T08:22:09;17.17;;;15.47;;
13941;SDS011;7043;51.630;7.254;2024-02-14T08:24:37;16.70;;;15.20;;
13941;SDS011;7043;51.630;7.254;2024-02-14T08:27:03;17.33;;;15.10;;
13941;SDS011;7043;51.630;7.254;2024-02-14T08:29:31;18.77;;;15.33;;
13941;SDS011;7043;51.630;7.254;2024-02-14T08:31:57;14.77;;;13.30;;
13941;SDS011;7043;51.630;7.254;2024-02-14T08:34:23;14.93;;;13.30;;
13941;SDS011;7043;51.630;7.254;2024-02-14T08:36:49;14.83;;;13.33;;
13941;SDS011;7043;51.630;7.254;2024-02-14T08:39:15;14.93;;;12.43;;
13941;SDS011;7043;51.630;7.254;2024-02-14T08:41:43;13.43;;;12.00;;
13941;SDS011;7043;51.630;7.254;2024-02-14T08:44:11;13.43;;;11.10;;
13941;SDS011;7043;51.630;7.254;2024-02-14T08:46:37;11.83;;;10.63;;
13941;SDS011;7043;51.630;7.254;2024-02-14T08:49:04;11.73;;;10.53;;
13941;SDS011;7043;51.630;7.254;2024-02-14T08:51:33;11.50;;;10.30;;
13941;SDS011;7043;51.630;7.254;2024-02-14T08:53:59;10.90;;;9.73;;
13941;SDS011;7043;51.630;7.254;2024-02-14T08:56:28;12.53;;;9.80;;
13941;SDS011;7043;51.630;7.254;2024-02-14T08:58:54;11.13;;;9.23;;
13941;SDS011;7043;51.630;7.254;2024-02-14T09:01:20;9.57;;;8.67;;
13941;SDS011;7043;51.630;7.254;2024-02-14T09:03:46;9.70;;;8.67;;
13941;SDS011;7043;51.630;7.254;2024-02-14T09:06:15;10.70;;;8.40;;
13941;SDS011;7043;51.630;7.254;2024-02-14T09:08:45;10.20;;;7.97;;
13941;SDS011;7043;51.630;7.254;2024-02-14T09:11:11;11.43;;;8.30;;
13941;SDS011;7043;51.630;7.254;2024-02-14T09:13:37;9.30;;;8.40;;
13941;SDS011;7043;51.630;7.254;2024-02-14T09:16:05;11.43;;;8.00;;
13941;SDS011;7043;51.630;7.254;2024-02-14T09:18:31;8.00;;;7.20;;
13941;SDS011;7043;51.630;7.254;2024-02-14T09:20:57;9.17;;;7.70;;
13941;SDS011;7043;51.630;7.254;2024-02-14T09:23:23;9.27;;;7.60;;
13941;SDS011;7043;51.630;7.254;2024-02-14T09:25:49;11.80;;;8.00;;
13941;SDS011;7043;51.630;7.254;2024-02-14T09:28:16;9.60;;;7.97;;
13941;SDS011;7043;51.630;7.254;2024-02-14T09:30:42;11.17;;;9.43;;
13941;SDS011;7043;51.630;7.254;2024-02-14T09:33:08;10.27;;;9.17;;
13941;SDS011;7043;51.630;7.254;2024-02-14T09:35:34;12.33;;;9.50;;
13941;SDS011;7043;51.630;7.254;2024-02-14T09:38:02;12.23;;;9.33;;
13941;SDS011;7043;51.630;7.254;2024-02-14T09:40:29;10.73;;;9.73;;
13941;SDS011;7043;51.630;7.254;2024-02-14T09:42:55;12.13;;;9.03;;
13941;SDS011;7043;51.630;7.254;2024-02-14T09:45:25;8.63;;;7.37;;
13941;SDS011;7043;51.630;7.254;2024-02-14T09:47:51;10.07;;;8.70;;
13941;SDS011;7043;51.630;7.254;2024-02-14T09:50:18;9.93;;;8.03;;
13941;SDS011;7043;51.630;7.254;2024-02-14T09:52:45;11.60;;;8.20;;
13941;SDS011;7043;51.630;7.254;2024-02-14T09:55:13;12.20;;;7.87;;
13941;SDS011;7043;51.630;7.254;2024-02-14T09:57:40;9.73;;;8.03;;
13941;SDS011;7043;51.630;7.254;2024-02-14T10:00:07;10.00;;;7.93;;
13941;SDS011;7043;51.630;7.254;2024-02-14T10:08:42;10.03;;;7.67;;
13941;SDS011;7043;51.630;7.254;2024-02-14T10:11:08;6.97;;;6.17;;
13941;SDS011;7043;51.630;7.254;2024-02-14T10:13:35;8.53;;;7.70;;
13941;SDS011;7043;51.630;7.254;2024-02-14T10:16:01;7.97;;;7.23;;
13941;SDS011;7043;51.630;7.254;2024-02-14T10:18:28;9.23;;;7.93;;
13941;SDS011;7043;51.630;7.254;2024-02-14T10:20:57;9.20;;;8.20;;
13941;SDS011;7043;51.630;7.254;2024-02-14T10:23:23;10.00;;;9.10;;
13941;SDS011;7043;51.630;7.254;2024-02-14T10:25:54;9.40;;;8.60;;
13941;SDS011;7043;51.630;7.254;2024-02-14T10:28:21;8.90;;;7.83;;
13941;SDS011;7043;51.630;7.254;2024-02-14T10:30:48;9.40;;;8.43;;
13941;SDS011;7043;51.630;7.254;2024-02-14T10:33:17;10.73;;;9.60;;
13941;SDS011;7043;51.630;7.254;2024-02-14T10:35:44;9.93;;;8.97;;
13941;SDS011;7043;51.630;7.254;2024-02-14T10:38:11;9.57;;;8.43;;
13941;SDS011;7043;51.630;7.254;2024-02-14T10:40:37;10.80;;;8.17;;
13941;SDS011;7043;51.630;7.254;2024-02-14T10:43:04;11.67;;;8.60;;
13941;SDS011;7043;51.630;7.254;2024-02-14T10:45:30;11.00;;;8.13;;
13941;SDS011;7043;51.630;7.254;2024-02-14T10:47:56;12.60;;;8.07;;
13941;SDS011;7043;51.630;7.254;2024-02-14T10:50:24;9.93;;;7.87;;
13941;SDS011;7043;51.630;7.254;2024-02-14T10:52:51;12.93;;;8.27;;
13941;SDS011;7043;51.630;7.254;2024-02-14T10:55:20;9.67;;;7.33;;
13941;SDS011;7043;51.630;7.254;2024-02-14T10:57:47;8.30;;;7.40;;
13941;SDS011;7043;51.630;7.254;2024-02-14T11:00:15;10.43;;;7.80;;
13941;SDS011;7043;51.630;7.254;2024-02-14T11:02:43;10.53;;;7.50;;
13941;SDS011;7043;51.630;7.254;2024-02-14T11:05:12;8.83;;;7.50;;
13941;SDS011;7043;51.630;7.254;2024-02-14T11:07:44;10.07;;;7.03;;
13941;SDS011;7043;51.630;7.254;2024-02-14T11:10:17;9.80;;;7.30;;
13941;SDS011;7043;51.630;7.254;2024-02-14T11:12:43;10.37;;;8.10;;
13941;SDS011;7043;51.630;7.254;2024-02-14T11:15:10;10.03;;;8.17;;
13941;SDS011;7043;51.630;7.254;2024-02-14T11:17:38;9.87;;;7.63;;
13941;SDS011;7043;51.630;7.254;2024-02-14T11:22:39;8.90;;;6.90;;
13941;SDS011;7043;51.630;7.254;2024-02-14T11:25:06;9.07;;;7.53;;
13941;SDS011;7043;51.630;7.254;2024-02-14T11:27:32;8.87;;;6.93;;
13941;SDS011;7043;51.630;7.254;2024-02-14T11:29:59;9.63;;;6.83;;
13941;SDS011;7043;51.630;7.254;2024-02-14T11:32:26;8.33;;;6.60;;
13941;SDS011;7043;51.630;7.254;2024-02-14T11:34:56;8.97;;;6.93;;
13941;SDS011;7043;51.630;7.254;2024-02-14T11:37:30;8.03;;;6.67;;
13941;SDS011;7043;51.630;7.254;2024-02-14T11:40:00;9.57;;;6.47;;
13941;SDS011;7043;51.630;7.254;2024-02-14T11:42:26;7.97;;;5.90;;
13941;SDS011;7043;51.630;7.254;2024-02-14T11:44:52;7.77;;;6.60;;
13941;SDS011;7043;51.630;7.254;2024-02-14T11:47:24;8.07;;;6.13;;
13941;SDS011;7043;51.630;7.254;2024-02-14T11:49:50;7.03;;;6.40;;
13941;SDS011;7043;51.630;7.254;2024-02-14T11:52:16;7.17;;;6.43;;
13941;SDS011;7043;51.630;7.254;2024-02-14T11:54:47;6.67;;;5.80;;
13941;SDS011;7043;51.630;7.254;2024-02-14T11:57:16;8.60;;;6.00;;
13941;SDS011;7043;51.630;7.254;2024-02-14T11:59:42;8.13;;;6.17;;
13941;SDS011;7043;51.630;7.254;2024-02-14T12:02:08;6.33;;;5.47;;
13941;SDS011;7043;51.630;7.254;2024-02-14T12:04:34;7.20;;;5.70;;
13941;SDS011;7043;51.630;7.254;2024-02-14T12:07:01;6.87;;;5.90;;
13941;SDS011;7043;51.630;7.254;2024-02-14T12:09:27;7.90;;;5.40;;
13941;SDS011;7043;51.630;7.254;2024-02-14T12:11:53;8.47;;;5.30;;
13941;SDS011;7043;51.630;7.254;2024-02-14T12:14:21;6.53;;;5.63;;
13941;SDS011;7043;51.630;7.254;2024-02-14T12:16:49;7.63;;;5.80;;
13941;SDS011;7043;51.630;7.254;2024-02-14T12:19:16;8.63;;;5.20;;
13941;SDS011;7043;51.630;7.254;2024-02-14T12:21:42;7.60;;;5.60;;
13941;SDS011;7043;51.630;7.254;2024-02-14T12:24:12;6.63;;;5.30;;
13941;SDS011;7043;51.630;7.254;2024-02-14T12:26:41;7.93;;;5.40;;
13941;SDS011;7043;51.630;7.254;2024-02-14T12:29:08;7.57;;;5.37;;
13941;SDS011;7043;51.630;7.254;2024-02-14T12:31:34;7.00;;;5.27;;
13941;SDS011;7043;51.630;7.254;2024-02-14T12:34:02;7.10;;;5.10;;
13941;SDS011;7043;51.630;7.254;2024-02-14T12:36:29;7.23;;;4.60;;
13941;SDS011;7043;51.630;7.254;2024-02-14T12:38:56;7.37;;;4.93;;
13941;SDS011;7043;51.630;7.254;2024-02-14T12:41:22;7.37;;;4.77;;
13941;SDS011;7043;51.630;7.254;2024-02-14T12:43:52;6.17;;;4.40;;
13941;SDS011;7043;51.630;7.254;2024-02-14T12:46:18;6.57;;;4.50;;
13941;SDS011;7043;51.630;7.254;2024-02-14T12:48:45;7.23;;;4.53;;
13941;SDS011;7043;51.630;7.254;2024-02-14T12:51:11;5.27;;;4.37;;
13941;SDS011;7043;51.630;7.254;2024-02-14T12:53:38;6.70;;;4.70;;
13941;SDS011;7043;51.630;7.254;2024-02-14T12:56:04;7.00;;;4.87;;
13941;SDS011;7043;51.630;7.254;2024-02-14T12:58:31;6.07;;;3.97;;
13941;SDS011;7043;51.630;7.254;2024-02-14T13:00:57;6.33;;;4.40;;
13941;SDS011;7043;51.630;7.254;2024-02-14T13:03:24;8.60;;;4.67;;
13941;SDS011;7043;51.630;7.254;2024-02-14T13:05:50;7.03;;;4.60;;
13941;SDS011;7043;51.630;7.254;2024-02-14T13:08:18;6.37;;;4.67;;
13941;SDS011;7043;51.630;7.254;2024-02-14T13:10:45;6.37;;;4.17;;
13941;SDS011;7043;51.630;7.254;2024-02-14T13:13:11;6.67;;;4.40;;
13941;SDS011;7043;51.630;7.254;2024-02-14T13:15:37;5.77;;;4.50;;
13941;SDS011;7043;51.630;7.254;2024-02-14T13:18:03;7.07;;;4.73;;
13941;SDS011;7043;51.630;7.254;2024-02-14T13:20:29;7.30;;;4.57;;
13941;SDS011;7043;51.630;7.254;2024-02-14T13:22:55;7.20;;;4.90;;
13941;SDS011;7043;51.630;7.254;2024-02-14T13:25:21;6.10;;;4.90;;
13941;SDS011;7043;51.630;7.254;2024-02-14T13:27:47;5.50;;;4.63;;
13941;SDS011;7043;51.630;7.254;2024-02-14T13:30:14;7.27;;;5.10;;
13941;SDS011;7043;51.630;7.254;2024-02-14T13:32:40;7.50;;;5.30;;
13941;SDS011;7043;51.630;7.254;2024-02-14T13:35:07;5.23;;;4.73;;
13941;SDS011;7043;51.630;7.254;2024-02-14T13:37:33;6.80;;;4.70;;
13941;SDS011;7043;51.630;7.254;2024-02-14T13:40:00;6.20;;;4.37;;
13941;SDS011;7043;51.630;7.254;2024-02-14T13:42:29;6.57;;;4.90;;
13941;SDS011;7043;51.630;7.254;2024-02-14T13:44:55;5.23;;;4.67;;
13941;SDS011;7043;51.630;7.254;2024-02-14T13:47:21;5.10;;;4.17;;
13941;SDS011;7043;51.630;7.254;2024-02-14T13:49:48;5.50;;;4.07;;
13941;SDS011;7043;51.630;7.254;2024-02-14T13:52:14;6.73;;;4.90;;
13941;SDS011;7043;51.630;7.254;2024-02-14T13:54:43;6.07;;;4.70;;
13941;SDS011;7043;51.630;7.254;2024-02-14T13:57:09;5.60;;;4.93;;
13941;SDS011;7043;51.630;7.254;2024-02-14T13:59:36;6.67;;;5.20;;
13941;SDS011;7043;51.630;7.254;2024-02-14T14:02:02;6.67;;;5.47;;
13941;SDS011;7043;51.630;7.254;2024-02-14T14:04:28;5.83;;;5.03;;
13941;SDS011;7043;51.630;7.254;2024-02-14T14:06:54;6.50;;;5.23;;
13941;SDS011;7043;51.630;7.254;2024-02-14T14:09:22;5.53;;;4.97;;
13941;SDS011;7043;51.630;7.254;2024-02-14T14:11:48;6.87;;;4.93;;
13941;SDS011;7043;51.630;7.254;2024-02-14T14:14:16;5.93;;;5.20;;
13941;SDS011;7043;51.630;7.254;2024-02-14T14:16:43;5.03;;;4.63;;
13941;SDS011;7043;51.630;7.254;2024-02-14T14:19:09;5.80;;;5.10;;
13941;SDS011;7043;51.630;7.254;2024-02-14T14:21:36;6.13;;;5.00;;
13941;SDS011;7043;51.630;7.254;2024-02-14T14:24:03;4.80;;;4.30;;
13941;SDS011;7043;51.630;7.254;2024-02-14T14:26:29;5.83;;;4.50;;
13941;SDS011;7043;51.630;7.254;2024-02-14T14:28:55;6.17;;;4.30;;
13941;SDS011;7043;51.630;7.254;2024-02-14T14:31:21;5.37;;;4.43;;
13941;SDS011;7043;51.630;7.254;2024-02-14T14:33:47;4.40;;;3.87;;
13941;SDS011;7043;51.630;7.254;2024-02-14T14:36:14;4.37;;;3.70;;
13941;SDS011;7043;51.630;7.254;2024-02-14T14:38:40;5.07;;;4.00;;
13941;SDS011;7043;51.630;7.254;2024-02-14T14:41:06;3.93;;;3.40;;
13941;SDS011;7043;51.630;7.254;2024-02-14T14:43:32;4.57;;;3.53;;
13941;SDS011;7043;51.630;7.254;2024-02-14T14:45:58;6.67;;;3.57;;
13941;SDS011;7043;51.630;7.254;2024-02-14T14:48:25;4.97;;;3.20;;
13941;SDS011;7043;51.630;7.254;2024-02-14T14:50:51;4.60;;;3.20;;
13941;SDS011;7043;51.630;7.254;2024-02-14T14:53:17;5.13;;;3.17;;
13941;SDS011;7043;51.630;7.254;2024-02-14T14:58:16;5.33;;;3.20;;
13941;SDS011;7043;51.630;7.254;2024-02-14T15:00:42;7.07;;;4.07;;
13941;SDS011;7043;51.630;7.254;2024-02-14T15:03:09;5.10;;;3.80;;